sensor_id;sensor_type;location;lat;lon;timestamp;P1;durP1;ratioP1;P2;durP2;ratioP2
76176;SDS011;64938;47.696;8.066;2023-04-24T00:00:04;2.90;;;1.30;;
76176;SDS011;64938;47.696;8.066;2023-04-24T00:02:34;2.00;;;0.90;;
76176;SDS011;64938;47.696;8.066;2023-04-24T00:05:03;2.37;;;0.87;;
76176;SDS011;64938;47.696;8.066;2023-04-24T00:07:30;1.90;;;1.10;;
76176;SDS011;64938;47.696;8.066;2023-04-24T00:09:56;1.13;;;1.00;;
76176;SDS011;64938;47.696;8.066;2023-04-24T00:12:22;1.77;;;0.93;;
76176;SDS011;64938;47.696;8.066;2023-04-24T00:14:50;1.57;;;1.20;;
76176;SDS011;64938;47.696;8.066;2023-04-24T00:17:15;1.00;;;0.90;;
76176;SDS011;64938;47.696;8.066;2023-04-24T00:19:45;2.07;;;1.00;;
76176;SDS011;64938;47.696;8.066;2023-04-24T00:22:11;1.07;;;0.93;;
76176;SDS011;64938;47.696;8.066;2023-04-24T00:24:38;2.00;;;1.00;;
76176;SDS011;64938;47.696;8.066;2023-04-24T00:27:04;1.00;;;0.90;;
76176;SDS011;64938;47.696;8.066;2023-04-24T00:29:30;0.90;;;0.70;;
76176;SDS011;64938;47.696;8.066;2023-04-24T00:31:56;1.97;;;1.20;;
76176;SDS011;64938;47.696;8.066;2023-04-24T00:34:22;1.53;;;0.97;;
76176;SDS011;64938;47.696;8.066;2023-04-24T00:36:48;0.80;;;0.80;;
76176;SDS011;64938;47.696;8.066;2023-04-24T00:39:17;1.10;;;0.80;;
76176;SDS011;64938;47.696;8.066;2023-04-24T00:41:44;3.10;;;1.10;;
76176;SDS011;64938;47.696;8.066;2023-04-24T00:44:10;1.57;;;1.03;;
76176;SDS011;64938;47.696;8.066;2023-04-24T00:46:36;2.30;;;1.20;;
76176;SDS011;64938;47.696;8.066;2023-04-24T00:49:02;2.03;;;1.13;;
76176;SDS011;64938;47.696;8.066;2023-04-24T00:51:28;1.40;;;1.20;;
76176;SDS011;64938;47.696;8.066;2023-04-24T00:53:54;1.10;;;1.00;;
76176;SDS011;64938;47.696;8.066;2023-04-24T00:56:20;2.03;;;1.10;;
76176;SDS011;64938;47.696;8.066;2023-04-24T00:58:46;1.93;;;1.10;;
76176;SDS011;64938;47.696;8.066;2023-04-24T01:01:12;1.07;;;0.97;;
76176;SDS011;64938;47.696;8.066;2023-04-24T01:03:39;1.13;;;1.03;;
76176;SDS011;64938;47.696;8.066;2023-04-24T01:06:05;0.90;;;0.90;;
76176;SDS011;64938;47.696;8.066;2023-04-24T01:08:31;2.00;;;1.30;;
76176;SDS011;64938;47.696;8.066;2023-04-24T01:10:56;2.30;;;1.40;;
76176;SDS011;64938;47.696;8.066;2023-04-24T01:13:22;1.67;;;1.20;;
76176;SDS011;64938;47.696;8.066;2023-04-24T01:15:48;2.87;;;1.33;;
76176;SDS011;64938;47.696;8.066;2023-04-24T01:18:14;1.47;;;1.30;;
76176;SDS011;64938;47.696;8.066;2023-04-24T01:20:40;1.50;;;1.30;;
76176;SDS011;64938;47.696;8.066;2023-04-24T01:23:07;1.63;;;1.20;;
76176;SDS011;64938;47.696;8.066;2023-04-24T01:25:33;1.90;;;1.20;;
76176;SDS011;64938;47.696;8.066;2023-04-24T01:27:59;1.63;;;1.53;;
76176;SDS011;64938;47.696;8.066;2023-04-24T01:30:26;2.50;;;2.27;;
76176;SDS011;64938;47.696;8.066;2023-04-24T01:32:52;1.77;;;1.40;;
76176;SDS011;64938;47.696;8.066;2023-04-24T01:35:18;1.93;;;1.40;;
76176;SDS011;64938;47.696;8.066;2023-04-24T01:37:45;3.83;;;1.77;;
76176;SDS011;64938;47.696;8.066;2023-04-24T01:40:11;1.80;;;1.57;;
76176;SDS011;64938;47.696;8.066;2023-04-24T01:42:36;3.70;;;1.57;;
76176;SDS011;64938;47.696;8.066;2023-04-24T01:45:03;3.23;;;1.43;;
76176;SDS011;64938;47.696;8.066;2023-04-24T01:47:30;1.90;;;1.43;;
76176;SDS011;64938;47.696;8.066;2023-04-24T01:49:56;3.20;;;1.70;;
76176;SDS011;64938;47.696;8.066;2023-04-24T01:52:22;1.67;;;1.37;;
76176;SDS011;64938;47.696;8.066;2023-04-24T01:54:48;2.50;;;1.47;;
76176;SDS011;64938;47.696;8.066;2023-04-24T01:57:14;1.97;;;1.27;;
76176;SDS011;64938;47.696;8.066;2023-04-24T01:59:40;1.70;;;1.60;;
76176;SDS011;64938;47.696;8.066;2023-04-24T02:02:06;3.97;;;1.40;;
76176;SDS011;64938;47.696;8.066;2023-04-24T02:04:32;5.33;;;1.77;;
76176;SDS011;64938;47.696;8.066;2023-04-24T02:06:58;1.67;;;1.57;;
76176;SDS011;64938;47.696;8.066;2023-04-24T02:09:24;4.10;;;1.30;;
76176;SDS011;64938;47.696;8.066;2023-04-24T02:11:50;1.53;;;1.40;;
76176;SDS011;64938;47.696;8.066;2023-04-24T02:14:16;3.73;;;2.13;;
76176;SDS011;64938;47.696;8.066;2023-04-24T02:16:42;4.13;;;1.50;;
76176;SDS011;64938;47.696;8.066;2023-04-24T02:19:09;4.03;;;1.70;;
76176;SDS011;64938;47.696;8.066;2023-04-24T02:21:35;1.50;;;1.33;;
76176;SDS011;64938;47.696;8.066;2023-04-24T02:24:01;3.70;;;1.50;;
76176;SDS011;64938;47.696;8.066;2023-04-24T02:26:27;2.00;;;1.33;;
76176;SDS011;64938;47.696;8.066;2023-04-24T02:28:53;3.30;;;1.60;;
76176;SDS011;64938;47.696;8.066;2023-04-24T02:31:18;1.80;;;1.50;;
76176;SDS011;64938;47.696;8.066;2023-04-24T02:33:44;2.90;;;1.10;;
76176;SDS011;64938;47.696;8.066;2023-04-24T02:36:11;2.53;;;1.33;;
76176;SDS011;64938;47.696;8.066;2023-04-24T02:38:38;2.70;;;1.30;;
76176;SDS011;64938;47.696;8.066;2023-04-24T02:41:03;1.40;;;1.30;;
76176;SDS011;64938;47.696;8.066;2023-04-24T02:43:31;1.33;;;1.07;;
76176;SDS011;64938;47.696;8.066;2023-04-24T02:45:57;1.10;;;0.90;;
76176;SDS011;64938;47.696;8.066;2023-04-24T02:48:23;1.90;;;1.00;;
76176;SDS011;64938;47.696;8.066;2023-04-24T02:50:49;1.60;;;0.83;;
76176;SDS011;64938;47.696;8.066;2023-04-24T02:53:15;1.93;;;1.00;;
76176;SDS011;64938;47.696;8.066;2023-04-24T02:55:41;1.00;;;0.87;;
76176;SDS011;64938;47.696;8.066;2023-04-24T02:58:07;2.00;;;1.63;;
76176;SDS011;64938;47.696;8.066;2023-04-24T03:00:34;3.30;;;1.30;;
76176;SDS011;64938;47.696;8.066;2023-04-24T03:03:00;1.43;;;1.20;;
76176;SDS011;64938;47.696;8.066;2023-04-24T03:05:26;1.43;;;1.33;;
76176;SDS011;64938;47.696;8.066;2023-04-24T03:07:53;1.30;;;0.90;;
76176;SDS011;64938;47.696;8.066;2023-04-24T03:10:19;1.70;;;1.43;;
76176;SDS011;64938;47.696;8.066;2023-04-24T03:12:44;2.10;;;1.10;;
76176;SDS011;64938;47.696;8.066;2023-04-24T03:15:10;0.70;;;0.70;;
76176;SDS011;64938;47.696;8.066;2023-04-24T03:17:36;0.80;;;0.80;;
76176;SDS011;64938;47.696;8.066;2023-04-24T03:20:02;2.87;;;0.90;;
76176;SDS011;64938;47.696;8.066;2023-04-24T03:22:30;1.87;;;0.87;;
76176;SDS011;64938;47.696;8.066;2023-04-24T03:24:59;1.77;;;0.90;;
76176;SDS011;64938;47.696;8.066;2023-04-24T03:27:30;0.80;;;0.70;;
76176;SDS011;64938;47.696;8.066;2023-04-24T03:29:55;1.53;;;0.77;;
76176;SDS011;64938;47.696;8.066;2023-04-24T03:32:21;1.90;;;0.67;;
76176;SDS011;64938;47.696;8.066;2023-04-24T03:34:48;0.60;;;0.50;;
76176;SDS011;64938;47.696;8.066;2023-04-24T03:37:14;1.47;;;0.70;;
76176;SDS011;64938;47.696;8.066;2023-04-24T03:39:41;0.63;;;0.50;;
76176;SDS011;64938;47.696;8.066;2023-04-24T03:42:07;0.70;;;0.50;;
76176;SDS011;64938;47.696;8.066;2023-04-24T03:44:34;1.20;;;0.80;;
76176;SDS011;64938;47.696;8.066;2023-04-24T03:47:00;0.90;;;0.80;;
76176;SDS011;64938;47.696;8.066;2023-04-24T03:49:26;1.93;;;1.00;;
76176;SDS011;64938;47.696;8.066;2023-04-24T03:51:52;1.47;;;1.13;;
76176;SDS011;64938;47.696;8.066;2023-04-24T03:54:18;0.93;;;0.80;;
76176;SDS011;64938;47.696;8.066;2023-04-24T03:56:44;1.40;;;1.17;;
76176;SDS011;64938;47.696;8.066;2023-04-24T03:59:10;1.40;;;1.30;;
76176;SDS011;64938;47.696;8.066;2023-04-24T04:01:36;3.57;;;1.60;;
76176;SDS011;64938;47.696;8.066;2023-04-24T04:04:03;5.80;;;1.20;;
76176;SDS011;64938;47.696;8.066;2023-04-24T04:06:29;2.53;;;1.20;;
76176;SDS011;64938;47.696;8.066;2023-04-24T04:08:56;1.97;;;1.37;;
76176;SDS011;64938;47.696;8.066;2023-04-24T04:11:22;1.70;;;1.33;;
76176;SDS011;64938;47.696;8.066;2023-04-24T04:13:48;2.10;;;1.60;;
76176;SDS011;64938;47.696;8.066;2023-04-24T04:16:14;2.30;;;1.77;;
76176;SDS011;64938;47.696;8.066;2023-04-24T04:18:42;2.10;;;1.70;;
76176;SDS011;64938;47.696;8.066;2023-04-24T04:21:08;2.50;;;1.70;;
76176;SDS011;64938;47.696;8.066;2023-04-24T04:23:34;1.70;;;1.60;;
76176;SDS011;64938;47.696;8.066;2023-04-24T04:26:00;1.80;;;1.70;;
76176;SDS011;64938;47.696;8.066;2023-04-24T04:28:27;2.00;;;1.80;;
76176;SDS011;64938;47.696;8.066;2023-04-24T04:30:53;4.53;;;2.80;;
76176;SDS011;64938;47.696;8.066;2023-04-24T04:33:19;4.27;;;2.60;;
76176;SDS011;64938;47.696;8.066;2023-04-24T04:35:46;2.97;;;2.77;;
76176;SDS011;64938;47.696;8.066;2023-04-24T04:38:17;3.27;;;2.97;;
76176;SDS011;64938;47.696;8.066;2023-04-24T04:40:43;3.50;;;3.20;;
76176;SDS011;64938;47.696;8.066;2023-04-24T04:43:10;3.63;;;3.33;;
76176;SDS011;64938;47.696;8.066;2023-04-24T04:45:36;3.47;;;3.17;;
76176;SDS011;64938;47.696;8.066;2023-04-24T04:48:04;4.20;;;3.40;;
76176;SDS011;64938;47.696;8.066;2023-04-24T04:50:32;4.23;;;3.20;;
76176;SDS011;64938;47.696;8.066;2023-04-24T04:52:58;3.57;;;3.20;;
76176;SDS011;64938;47.696;8.066;2023-04-24T04:55:24;4.33;;;3.50;;
76176;SDS011;64938;47.696;8.066;2023-04-24T04:57:50;5.10;;;3.70;;
76176;SDS011;64938;47.696;8.066;2023-04-24T05:00:17;6.03;;;3.83;;
76176;SDS011;64938;47.696;8.066;2023-04-24T05:02:43;4.30;;;3.90;;
76176;SDS011;64938;47.696;8.066;2023-04-24T05:05:09;4.20;;;3.80;;
76176;SDS011;64938;47.696;8.066;2023-04-24T05:07:35;4.63;;;4.23;;
76176;SDS011;64938;47.696;8.066;2023-04-24T05:10:01;4.37;;;3.97;;
76176;SDS011;64938;47.696;8.066;2023-04-24T05:12:28;4.27;;;3.87;;
76176;SDS011;64938;47.696;8.066;2023-04-24T05:14:53;8.10;;;4.50;;
76176;SDS011;64938;47.696;8.066;2023-04-24T05:17:19;4.53;;;4.13;;
76176;SDS011;64938;47.696;8.066;2023-04-24T05:19:45;4.40;;;3.90;;
76176;SDS011;64938;47.696;8.066;2023-04-24T05:22:11;4.93;;;4.40;;
76176;SDS011;64938;47.696;8.066;2023-04-24T05:24:38;4.80;;;4.30;;
76176;SDS011;64938;47.696;8.066;2023-04-24T05:27:03;4.57;;;4.17;;
76176;SDS011;64938;47.696;8.066;2023-04-24T05:29:30;6.00;;;4.30;;
76176;SDS011;64938;47.696;8.066;2023-04-24T05:31:57;8.87;;;5.13;;
76176;SDS011;64938;47.696;8.066;2023-04-24T05:34:22;5.27;;;4.77;;
76176;SDS011;64938;47.696;8.066;2023-04-24T05:36:48;6.27;;;5.40;;
76176;SDS011;64938;47.696;8.066;2023-04-24T05:39:15;6.30;;;5.03;;
76176;SDS011;64938;47.696;8.066;2023-04-24T05:41:42;5.57;;;5.00;;
76176;SDS011;64938;47.696;8.066;2023-04-24T05:44:07;5.67;;;5.13;;
76176;SDS011;64938;47.696;8.066;2023-04-24T05:46:33;5.37;;;4.87;;
76176;SDS011;64938;47.696;8.066;2023-04-24T05:48:59;8.00;;;5.10;;
76176;SDS011;64938;47.696;8.066;2023-04-24T05:51:24;5.20;;;4.33;;
76176;SDS011;64938;47.696;8.066;2023-04-24T05:53:51;7.27;;;5.47;;
76176;SDS011;64938;47.696;8.066;2023-04-24T05:56:17;6.17;;;5.33;;
76176;SDS011;64938;47.696;8.066;2023-04-24T05:58:43;7.07;;;6.37;;
76176;SDS011;64938;47.696;8.066;2023-04-24T06:01:08;5.90;;;5.40;;
76176;SDS011;64938;47.696;8.066;2023-04-24T06:03:34;5.30;;;4.80;;
76176;SDS011;64938;47.696;8.066;2023-04-24T06:06:00;4.67;;;4.23;;
76176;SDS011;64938;47.696;8.066;2023-04-24T06:08:27;7.80;;;4.00;;
76176;SDS011;64938;47.696;8.066;2023-04-24T06:10:53;3.33;;;3.03;;
76176;SDS011;64938;47.696;8.066;2023-04-24T06:13:19;3.87;;;3.10;;
76176;SDS011;64938;47.696;8.066;2023-04-24T06:15:45;4.10;;;3.60;;
76176;SDS011;64938;47.696;8.066;2023-04-24T06:18:12;4.47;;;3.80;;
76176;SDS011;64938;47.696;8.066;2023-04-24T06:20:38;3.77;;;3.17;;
76176;SDS011;64938;47.696;8.066;2023-04-24T06:23:04;5.77;;;3.97;;
76176;SDS011;64938;47.696;8.066;2023-04-24T06:25:29;4.50;;;3.87;;
76176;SDS011;64938;47.696;8.066;2023-04-24T06:27:55;6.00;;;4.00;;
76176;SDS011;64938;47.696;8.066;2023-04-24T06:30:22;4.83;;;4.00;;
76176;SDS011;64938;47.696;8.066;2023-04-24T06:32:48;4.23;;;3.83;;
76176;SDS011;64938;47.696;8.066;2023-04-24T06:35:13;4.53;;;4.13;;
76176;SDS011;64938;47.696;8.066;2023-04-24T06:37:40;5.90;;;3.93;;
76176;SDS011;64938;47.696;8.066;2023-04-24T06:40:07;8.17;;;4.07;;
76176;SDS011;64938;47.696;8.066;2023-04-24T06:42:33;4.60;;;4.20;;
76176;SDS011;64938;47.696;8.066;2023-04-24T06:45:00;4.73;;;3.93;;
76176;SDS011;64938;47.696;8.066;2023-04-24T06:47:27;4.03;;;3.73;;
76176;SDS011;64938;47.696;8.066;2023-04-24T06:49:53;3.30;;;3.00;;
76176;SDS011;64938;47.696;8.066;2023-04-24T06:52:20;3.20;;;2.73;;
76176;SDS011;64938;47.696;8.066;2023-04-24T06:54:46;2.00;;;1.80;;
76176;SDS011;64938;47.696;8.066;2023-04-24T06:57:12;1.70;;;1.57;;
76176;SDS011;64938;47.696;8.066;2023-04-24T06:59:38;1.93;;;1.83;;
76176;SDS011;64938;47.696;8.066;2023-04-24T07:02:04;1.80;;;1.50;;
76176;SDS011;64938;47.696;8.066;2023-04-24T07:04:30;2.33;;;2.13;;
76176;SDS011;64938;47.696;8.066;2023-04-24T07:06:56;3.60;;;2.30;;
76176;SDS011;64938;47.696;8.066;2023-04-24T07:09:23;2.40;;;2.20;;
76176;SDS011;64938;47.696;8.066;2023-04-24T07:11:50;2.50;;;2.30;;
76176;SDS011;64938;47.696;8.066;2023-04-24T07:14:16;3.00;;;2.80;;
76176;SDS011;64938;47.696;8.066;2023-04-24T07:16:43;3.57;;;3.27;;
76176;SDS011;64938;47.696;8.066;2023-04-24T07:19:09;4.50;;;2.80;;
76176;SDS011;64938;47.696;8.066;2023-04-24T07:21:35;3.23;;;2.70;;
76176;SDS011;64938;47.696;8.066;2023-04-24T07:24:01;2.80;;;2.43;;
76176;SDS011;64938;47.696;8.066;2023-04-24T07:26:28;3.00;;;2.17;;
76176;SDS011;64938;47.696;8.066;2023-04-24T07:28:54;3.87;;;2.53;;
76176;SDS011;64938;47.696;8.066;2023-04-24T07:31:20;2.53;;;2.33;;
76176;SDS011;64938;47.696;8.066;2023-04-24T07:33:47;3.43;;;2.67;;
76176;SDS011;64938;47.696;8.066;2023-04-24T07:36:12;3.20;;;2.90;;
76176;SDS011;64938;47.696;8.066;2023-04-24T07:38:42;3.40;;;3.10;;
76176;SDS011;64938;47.696;8.066;2023-04-24T07:41:08;3.77;;;3.40;;
76176;SDS011;64938;47.696;8.066;2023-04-24T07:43:34;3.27;;;2.97;;
76176;SDS011;64938;47.696;8.066;2023-04-24T07:46:01;4.10;;;3.10;;
76176;SDS011;64938;47.696;8.066;2023-04-24T07:48:26;3.27;;;2.80;;
76176;SDS011;64938;47.696;8.066;2023-04-24T07:50:53;4.00;;;2.73;;
76176;SDS011;64938;47.696;8.066;2023-04-24T07:53:18;4.70;;;3.20;;
76176;SDS011;64938;47.696;8.066;2023-04-24T07:55:45;3.43;;;3.17;;
76176;SDS011;64938;47.696;8.066;2023-04-24T07:58:11;5.00;;;4.03;;
76176;SDS011;64938;47.696;8.066;2023-04-24T08:00:37;5.37;;;3.40;;
76176;SDS011;64938;47.696;8.066;2023-04-24T08:03:03;7.20;;;3.30;;
76176;SDS011;64938;47.696;8.066;2023-04-24T08:05:29;4.93;;;3.27;;
76176;SDS011;64938;47.696;8.066;2023-04-24T08:07:55;4.33;;;3.40;;
76176;SDS011;64938;47.696;8.066;2023-04-24T08:10:21;4.07;;;3.37;;
76176;SDS011;64938;47.696;8.066;2023-04-24T08:12:48;5.27;;;3.90;;
76176;SDS011;64938;47.696;8.066;2023-04-24T08:15:14;4.57;;;3.87;;
76176;SDS011;64938;47.696;8.066;2023-04-24T08:17:39;4.10;;;3.70;;
76176;SDS011;64938;47.696;8.066;2023-04-24T08:20:05;5.00;;;4.00;;
76176;SDS011;64938;47.696;8.066;2023-04-24T08:22:35;4.93;;;3.53;;
76176;SDS011;64938;47.696;8.066;2023-04-24T08:25:01;4.27;;;3.87;;
76176;SDS011;64938;47.696;8.066;2023-04-24T08:27:30;4.33;;;3.90;;
76176;SDS011;64938;47.696;8.066;2023-04-24T08:29:56;5.53;;;4.40;;
76176;SDS011;64938;47.696;8.066;2023-04-24T08:32:22;3.90;;;3.50;;
76176;SDS011;64938;47.696;8.066;2023-04-24T08:34:48;5.70;;;4.03;;
76176;SDS011;64938;47.696;8.066;2023-04-24T08:37:14;4.70;;;4.17;;
76176;SDS011;64938;47.696;8.066;2023-04-24T08:39:40;4.27;;;3.87;;
76176;SDS011;64938;47.696;8.066;2023-04-24T08:42:05;4.37;;;3.97;;
76176;SDS011;64938;47.696;8.066;2023-04-24T08:44:33;6.90;;;4.00;;
76176;SDS011;64938;47.696;8.066;2023-04-24T08:47:01;5.20;;;4.70;;
76176;SDS011;64938;47.696;8.066;2023-04-24T08:49:28;4.70;;;3.80;;
76176;SDS011;64938;47.696;8.066;2023-04-24T08:51:55;6.53;;;3.90;;
76176;SDS011;64938;47.696;8.066;2023-04-24T08:54:23;6.93;;;4.10;;
76176;SDS011;64938;47.696;8.066;2023-04-24T08:56:50;5.67;;;4.10;;
76176;SDS011;64938;47.696;8.066;2023-04-24T08:59:16;4.80;;;3.70;;
76176;SDS011;64938;47.696;8.066;2023-04-24T09:01:42;5.23;;;3.70;;
76176;SDS011;64938;47.696;8.066;2023-04-24T09:04:09;5.67;;;3.80;;
76176;SDS011;64938;47.696;8.066;2023-04-24T09:06:38;8.30;;;3.97;;
76176;SDS011;64938;47.696;8.066;2023-04-24T09:09:06;4.13;;;3.70;;
76176;SDS011;64938;47.696;8.066;2023-04-24T09:11:34;4.17;;;3.77;;
76176;SDS011;64938;47.696;8.066;2023-04-24T09:14:00;3.83;;;3.40;;
76176;SDS011;64938;47.696;8.066;2023-04-24T09:16:28;3.67;;;3.27;;
76176;SDS011;64938;47.696;8.066;2023-04-24T09:18:55;3.40;;;3.00;;
76176;SDS011;64938;47.696;8.066;2023-04-24T09:21:22;5.63;;;3.10;;
76176;SDS011;64938;47.696;8.066;2023-04-24T09:23:57;3.30;;;3.00;;
76176;SDS011;64938;47.696;8.066;2023-04-24T09:26:24;4.23;;;3.37;;
76176;SDS011;64938;47.696;8.066;2023-04-24T09:28:50;4.20;;;3.80;;
76176;SDS011;64938;47.696;8.066;2023-04-24T09:31:17;4.63;;;3.60;;
76176;SDS011;64938;47.696;8.066;2023-04-24T09:34:00;3.40;;;3.10;;
76176;SDS011;64938;47.696;8.066;2023-04-24T09:36:29;6.07;;;3.83;;
76176;SDS011;64938;47.696;8.066;2023-04-24T09:39:00;4.23;;;3.70;;
76176;SDS011;64938;47.696;8.066;2023-04-24T09:41:27;3.90;;;3.50;;
76176;SDS011;64938;47.696;8.066;2023-04-24T09:43:54;4.40;;;3.70;;
76176;SDS011;64938;47.696;8.066;2023-04-24T09:46:28;3.50;;;3.20;;
76176;SDS011;64938;47.696;8.066;2023-04-24T09:48:55;4.40;;;3.03;;
76176;SDS011;64938;47.696;8.066;2023-04-24T09:51:32;3.00;;;2.70;;
76176;SDS011;64938;47.696;8.066;2023-04-24T09:54:00;4.50;;;2.87;;
76176;SDS011;64938;47.696;8.066;2023-04-24T09:56:46;4.20;;;3.20;;
76176;SDS011;64938;47.696;8.066;2023-04-24T09:59:15;3.60;;;3.20;;
76176;SDS011;64938;47.696;8.066;2023-04-24T10:01:41;3.70;;;3.03;;
76176;SDS011;64938;47.696;8.066;2023-04-24T10:04:21;5.27;;;3.30;;
76176;SDS011;64938;47.696;8.066;2023-04-24T10:06:50;3.43;;;3.13;;
76176;SDS011;64938;47.696;8.066;2023-04-24T10:09:17;3.43;;;3.13;;
76176;SDS011;64938;47.696;8.066;2023-04-24T10:11:47;7.80;;;3.37;;
76176;SDS011;64938;47.696;8.066;2023-04-24T10:14:15;3.80;;;3.33;;
76176;SDS011;64938;47.696;8.066;2023-04-24T10:16:43;4.43;;;3.20;;
76176;SDS011;64938;47.696;8.066;2023-04-24T10:19:15;3.90;;;3.53;;
76176;SDS011;64938;47.696;8.066;2023-04-24T10:21:43;5.20;;;3.13;;
76176;SDS011;64938;47.696;8.066;2023-04-24T10:24:14;3.77;;;2.80;;
76176;SDS011;64938;47.696;8.066;2023-04-24T10:26:42;3.93;;;3.10;;
76176;SDS011;64938;47.696;8.066;2023-04-24T10:29:09;3.97;;;3.27;;
76176;SDS011;64938;47.696;8.066;2023-04-24T10:31:37;3.00;;;2.80;;
76176;SDS011;64938;47.696;8.066;2023-04-24T10:34:04;3.60;;;3.30;;
76176;SDS011;64938;47.696;8.066;2023-04-24T10:36:30;3.23;;;2.80;;
76176;SDS011;64938;47.696;8.066;2023-04-24T10:38:59;3.23;;;2.77;;
76176;SDS011;64938;47.696;8.066;2023-04-24T10:41:26;3.77;;;3.03;;
76176;SDS011;64938;47.696;8.066;2023-04-24T10:44:08;2.83;;;2.60;;
76176;SDS011;64938;47.696;8.066;2023-04-24T10:46:35;5.00;;;3.00;;
76176;SDS011;64938;47.696;8.066;2023-04-24T10:49:05;3.63;;;2.90;;
76176;SDS011;64938;47.696;8.066;2023-04-24T10:51:51;5.90;;;3.27;;
76176;SDS011;64938;47.696;8.066;2023-04-24T10:54:26;3.47;;;2.50;;
76176;SDS011;64938;47.696;8.066;2023-04-24T10:56:53;3.43;;;2.80;;
76176;SDS011;64938;47.696;8.066;2023-04-24T10:59:26;3.10;;;2.77;;
76176;SDS011;64938;47.696;8.066;2023-04-24T11:01:53;2.80;;;2.33;;
76176;SDS011;64938;47.696;8.066;2023-04-24T11:04:28;3.33;;;2.50;;
76176;SDS011;64938;47.696;8.066;2023-04-24T11:06:55;2.97;;;2.67;;
76176;SDS011;64938;47.696;8.066;2023-04-24T11:09:21;3.00;;;2.70;;
76176;SDS011;64938;47.696;8.066;2023-04-24T11:11:47;3.60;;;2.70;;
76176;SDS011;64938;47.696;8.066;2023-04-24T11:14:14;3.07;;;2.77;;
76176;SDS011;64938;47.696;8.066;2023-04-24T11:21:44;2.63;;;2.43;;
76176;SDS011;64938;47.696;8.066;2023-04-24T11:24:28;6.83;;;3.20;;
76176;SDS011;64938;47.696;8.066;2023-04-24T11:26:55;2.90;;;2.60;;
76176;SDS011;64938;47.696;8.066;2023-04-24T11:29:37;3.23;;;2.50;;
76176;SDS011;64938;47.696;8.066;2023-04-24T11:34:49;4.27;;;2.67;;
76176;SDS011;64938;47.696;8.066;2023-04-24T11:37:19;3.20;;;2.80;;
76176;SDS011;64938;47.696;8.066;2023-04-24T11:39:45;3.37;;;3.00;;
76176;SDS011;64938;47.696;8.066;2023-04-24T11:42:10;3.30;;;3.00;;
76176;SDS011;64938;47.696;8.066;2023-04-24T11:44:39;3.40;;;3.00;;
76176;SDS011;64938;47.696;8.066;2023-04-24T11:47:07;4.47;;;3.30;;
76176;SDS011;64938;47.696;8.066;2023-04-24T11:49:33;2.77;;;2.50;;
76176;SDS011;64938;47.696;8.066;2023-04-24T11:52:02;3.87;;;3.47;;
76176;SDS011;64938;47.696;8.066;2023-04-24T11:54:28;3.37;;;2.80;;
76176;SDS011;64938;47.696;8.066;2023-04-24T11:56:53;3.03;;;2.77;;
76176;SDS011;64938;47.696;8.066;2023-04-24T11:59:19;4.20;;;2.77;;
76176;SDS011;64938;47.696;8.066;2023-04-24T12:01:45;3.87;;;3.00;;
76176;SDS011;64938;47.696;8.066;2023-04-24T12:04:11;4.30;;;2.47;;
76176;SDS011;64938;47.696;8.066;2023-04-24T12:06:38;3.13;;;2.40;;
76176;SDS011;64938;47.696;8.066;2023-04-24T12:09:03;3.67;;;2.83;;
76176;SDS011;64938;47.696;8.066;2023-04-24T12:11:29;3.30;;;2.47;;
76176;SDS011;64938;47.696;8.066;2023-04-24T12:13:55;2.80;;;2.40;;
76176;SDS011;64938;47.696;8.066;2023-04-24T12:16:21;3.40;;;2.47;;
76176;SDS011;64938;47.696;8.066;2023-04-24T12:18:46;4.10;;;3.00;;
76176;SDS011;64938;47.696;8.066;2023-04-24T12:23:42;3.00;;;2.40;;
76176;SDS011;64938;47.696;8.066;2023-04-24T12:26:09;4.80;;;2.47;;
76176;SDS011;64938;47.696;8.066;2023-04-24T12:28:35;4.70;;;3.00;;
76176;SDS011;64938;47.696;8.066;2023-04-24T12:31:02;2.90;;;2.60;;
76176;SDS011;64938;47.696;8.066;2023-04-24T12:33:28;4.57;;;2.87;;
76176;SDS011;64938;47.696;8.066;2023-04-24T12:35:58;3.43;;;2.70;;
76176;SDS011;64938;47.696;8.066;2023-04-24T12:38:26;2.83;;;2.60;;
76176;SDS011;64938;47.696;8.066;2023-04-24T12:41:08;3.80;;;2.60;;
76176;SDS011;64938;47.696;8.066;2023-04-24T12:43:36;3.30;;;2.90;;
76176;SDS011;64938;47.696;8.066;2023-04-24T12:46:02;3.93;;;2.57;;
76176;SDS011;64938;47.696;8.066;2023-04-24T12:48:28;2.87;;;2.67;;
76176;SDS011;64938;47.696;8.066;2023-04-24T12:50:54;5.43;;;2.60;;
76176;SDS011;64938;47.696;8.066;2023-04-24T12:53:21;3.40;;;3.10;;
76176;SDS011;64938;47.696;8.066;2023-04-24T12:55:47;4.07;;;3.30;;
76176;SDS011;64938;47.696;8.066;2023-04-24T12:58:19;3.37;;;3.07;;
76176;SDS011;64938;47.696;8.066;2023-04-24T13:00:45;5.33;;;2.87;;
76176;SDS011;64938;47.696;8.066;2023-04-24T13:03:12;3.77;;;3.03;;
76176;SDS011;64938;47.696;8.066;2023-04-24T13:05:38;3.37;;;3.07;;
76176;SDS011;64938;47.696;8.066;2023-04-24T13:08:03;5.10;;;3.37;;
76176;SDS011;64938;47.696;8.066;2023-04-24T13:10:29;4.03;;;3.23;;
76176;SDS011;64938;47.696;8.066;2023-04-24T13:12:55;3.07;;;2.87;;
76176;SDS011;64938;47.696;8.066;2023-04-24T13:15:20;3.00;;;2.60;;
76176;SDS011;64938;47.696;8.066;2023-04-24T13:17:46;4.30;;;2.57;;
76176;SDS011;64938;47.696;8.066;2023-04-24T13:20:12;3.80;;;3.10;;
76176;SDS011;64938;47.696;8.066;2023-04-24T13:22:38;4.63;;;3.07;;
76176;SDS011;64938;47.696;8.066;2023-04-24T13:25:03;4.60;;;3.33;;
76176;SDS011;64938;47.696;8.066;2023-04-24T13:27:31;8.23;;;3.20;;
76176;SDS011;64938;47.696;8.066;2023-04-24T13:29:56;3.60;;;3.30;;
76176;SDS011;64938;47.696;8.066;2023-04-24T13:32:22;3.33;;;2.83;;
76176;SDS011;64938;47.696;8.066;2023-04-24T13:34:47;3.63;;;3.33;;
76176;SDS011;64938;47.696;8.066;2023-04-24T13:37:13;4.23;;;3.10;;
76176;SDS011;64938;47.696;8.066;2023-04-24T13:39:39;4.77;;;3.57;;
76176;SDS011;64938;47.696;8.066;2023-04-24T13:42:06;5.97;;;3.70;;
76176;SDS011;64938;47.696;8.066;2023-04-24T13:44:32;5.33;;;3.97;;
76176;SDS011;64938;47.696;8.066;2023-04-24T13:46:57;3.63;;;3.33;;
76176;SDS011;64938;47.696;8.066;2023-04-24T13:49:24;3.77;;;3.40;;
76176;SDS011;64938;47.696;8.066;2023-04-24T13:51:50;3.57;;;3.27;;
76176;SDS011;64938;47.696;8.066;2023-04-24T13:54:16;3.43;;;3.13;;
76176;SDS011;64938;47.696;8.066;2023-04-24T13:56:42;4.17;;;3.77;;
76176;SDS011;64938;47.696;8.066;2023-04-24T13:59:08;5.17;;;3.27;;
76176;SDS011;64938;47.696;8.066;2023-04-24T14:01:34;4.13;;;3.17;;
76176;SDS011;64938;47.696;8.066;2023-04-24T14:04:00;3.53;;;3.07;;
76176;SDS011;64938;47.696;8.066;2023-04-24T14:06:25;3.77;;;2.70;;
76176;SDS011;64938;47.696;8.066;2023-04-24T14:08:51;4.00;;;3.20;;
76176;SDS011;64938;47.696;8.066;2023-04-24T14:11:17;3.50;;;3.23;;
76176;SDS011;64938;47.696;8.066;2023-04-24T14:13:44;3.17;;;2.80;;
76176;SDS011;64938;47.696;8.066;2023-04-24T14:16:10;3.70;;;3.33;;
76176;SDS011;64938;47.696;8.066;2023-04-24T14:18:35;4.33;;;3.20;;
76176;SDS011;64938;47.696;8.066;2023-04-24T14:21:02;3.17;;;2.87;;
76176;SDS011;64938;47.696;8.066;2023-04-24T14:23:28;4.60;;;3.17;;
76176;SDS011;64938;47.696;8.066;2023-04-24T14:25:54;4.57;;;3.30;;
76176;SDS011;64938;47.696;8.066;2023-04-24T14:28:20;4.07;;;3.57;;
76176;SDS011;64938;47.696;8.066;2023-04-24T14:30:46;3.80;;;3.50;;
76176;SDS011;64938;47.696;8.066;2023-04-24T14:33:12;4.60;;;3.70;;
76176;SDS011;64938;47.696;8.066;2023-04-24T14:35:38;3.57;;;3.07;;
76176;SDS011;64938;47.696;8.066;2023-04-24T14:38:07;3.63;;;3.30;;
76176;SDS011;64938;47.696;8.066;2023-04-24T14:40:32;4.50;;;4.10;;
76176;SDS011;64938;47.696;8.066;2023-04-24T14:42:58;6.40;;;3.60;;
76176;SDS011;64938;47.696;8.066;2023-04-24T14:45:24;3.83;;;3.40;;
76176;SDS011;64938;47.696;8.066;2023-04-24T14:47:50;5.20;;;3.47;;
76176;SDS011;64938;47.696;8.066;2023-04-24T14:50:16;6.03;;;3.50;;
76176;SDS011;64938;47.696;8.066;2023-04-24T14:52:42;4.00;;;3.53;;
76176;SDS011;64938;47.696;8.066;2023-04-24T14:55:07;4.33;;;3.93;;